| time (UTC) | temp F | wind direction | speed knots | gust knots | rain 1hr in | rain 24hr in | rain mn in | humidity % | barometer mb |
| 20260503194056 | 75 | 202 | 3.5 | 7.8 | 0.00 | 0.00 | 0.00 | 53 | 1013.8 |
| 20260503193556 | 75 | 222 | 1.7 | 7.8 | 0.00 | 0.00 | 0.00 | 54 | 1013.9 |
| 20260503193056 | 75 | 270 | 3.5 | 7.8 | 0.00 | 0.00 | 0.00 | 61 | 1014.0 |
| 20260503192555 | 74 | 219 | 2.6 | 7.8 | 0.00 | 0.00 | 0.00 | 55 | 1014.0 |
| 20260503192055 | 74 | 180 | 2.6 | 6.1 | 0.00 | 0.00 | 0.00 | 55 | 1014.1 |
| 20260503191558 | 74 | 179 | 2.6 | 6.1 | 0.00 | 0.00 | 0.00 | 55 | 1014.1 |
| 20260503191058 | 73 | 0 | 2.6 | 7.0 | 0.00 | 0.00 | 0.00 | 56 | 1014.1 |
| 20260503190556 | 74 | 221 | 0.9 | 7.0 | 0.00 | 0.00 | 0.00 | 55 | 1014.1 |
| 20260503190055 | 74 | 232 | 3.5 | 7.0 | 0.00 | 0.00 | 0.00 | 55 | 1014.2 |
| 20260503185555 | 73 | 188 | 1.7 | 7.0 | 0.00 | 0.00 | 0.00 | 55 | 1014.2 |
| 20260503185056 | 72 | 220 | 4.3 | 7.0 | 0.00 | 0.00 | 0.00 | 55 | 1014.4 |
| 20260503184613 | 72 | 286 | 2.6 | 6.1 | 0.00 | 0.00 | 0.00 | 56 | 1014.3 |
| 20260503184056 | 72 | 197 | 1.7 | 6.1 | 0.00 | 0.00 | 0.00 | 57 | 1014.4 |
| 20260503183555 | 72 | 218 | 2.6 | 6.1 | 0.00 | 0.00 | 0.00 | 57 | 1014.5 |
| 20260503183101 | 72 | 236 | 1.7 | 7.0 | 0.00 | 0.00 | 0.00 | 59 | 1014.5 |
| 20260503182555 | 71 | 190 | 3.5 | 7.0 | 0.00 | 0.00 | 0.00 | 66 | 1014.6 |
| 20260503182055 | 71 | 227 | 1.7 | 4.3 | 0.00 | 0.00 | 0.00 | 59 | 1014.6 |
| 20260503181558 | 71 | 159 | 0.9 | 6.1 | 0.00 | 0.00 | 0.00 | 59 | 1014.6 |
| 20260503181056 | 71 | 167 | 1.7 | 6.1 | 0.00 | 0.00 | 0.00 | 60 | 1014.7 |
| 20260503180556 | 70 | 191 | 1.7 | 6.1 | 0.00 | 0.00 | 0.00 | 60 | 1014.7 |
| 20260503180058 | 70 | 197 | 1.7 | 6.1 | 0.00 | 0.00 | 0.00 | 60 | 1014.8 |
| 20260503175555 | 69 | 223 | 2.6 | 6.1 | 0.00 | 0.00 | 0.00 | 59 | 1014.9 |
| 20260503175056 | 69 | 203 | 2.6 | 6.1 | 0.00 | 0.00 | 0.00 | 59 | 1014.9 |
| 20260503174556 | 70 | 207 | 1.7 | 6.1 | 0.00 | 0.00 | 0.00 | 65 | 1015.0 |
| 20260503174054 | 69 | 160 | 1.7 | 5.2 | 0.00 | 0.00 | 0.00 | 59 | 1015.0 |
| 20260503173555 | 69 | 221 | 2.6 | 5.2 | 0.00 | 0.00 | 0.00 | 61 | 1015.1 |
| 20260503173056 | 69 | 217 | 0.9 | 3.5 | 0.00 | 0.00 | 0.00 | 59 | 1015.1 |
| 20260503172554 | 69 | 213 | 0.9 | 6.1 | 0.00 | 0.00 | 0.00 | 59 | 1015.1 |
| 20260503172055 | 68 | 199 | 0.9 | 6.1 | 0.00 | 0.00 | 0.00 | 59 | 1015.2 |
| 20260503171611 | 68 | 294 | 2.6 | 6.1 | 0.00 | 0.00 | 0.00 | 65 | 1015.3 |
| 20260503171059 | 70 | 266 | 0.9 | 4.3 | 0.00 | 0.00 | 0.00 | 55 | 1015.3 |
| 20260503170554 | 69 | 0 | 0.0 | 7.0 | 0.00 | 0.00 | 0.00 | 57 | 1015.1 |
| 20260503170105 | 68 | 0 | 1.7 | 7.0 | 0.00 | 0.00 | 0.00 | 58 | 1015.2 |
| 20260503150553 | 58 | 0 | 0.0 | 0.0 | 0.00 | 0.00 | 0.00 | 79 | 1015.5 |
| 20260503131058 | 47 | 0 | 0.0 | 0.0 | 0.00 | 0.00 | 0.00 | 90 | 1015.4 |
| 20260503130557 | 47 | 0 | 0.0 | 0.0 | 0.00 | 0.00 | 0.00 | 89 | 1015.4 |
| 20260503110554 | 49 | 0 | 0.0 | 0.0 | 0.00 | 0.00 | 0.00 | 88 | 1015.7 |
| 20260503090110 | 51 | 0 | 0.0 | 0.0 | 0.00 | 0.00 | 0.00 | 87 | 1015.8 |
| 20260503081552 | 52 | 0 | 0.0 | 0.0 | 0.00 | 0.00 | 0.00 | 86 | 1015.9 |
| 20260503081054 | 52 | 0 | 0.0 | 0.0 | 0.00 | 0.00 | 0.00 | 85 | 1015.9 |
| 20260503080552 | 52 | 0 | 0.0 | 0.0 | 0.00 | 0.00 | 0.00 | 85 | 1015.9 |
| 20260503080109 | 52 | 0 | 0.0 | 0.0 | 0.00 | 0.00 | 0.00 | 85 | 1015.7 |
| 20260503072553 | 53 | 0 | 0.0 | 0.0 | 0.00 | 0.00 | 0.00 | 84 | 1015.6 |
| 20260503072054 | 53 | 0 | 0.0 | 0.0 | 0.00 | 0.00 | 0.00 | 84 | 1015.6 |
| 20260503071608 | 53 | 0 | 0.0 | 0.0 | 0.00 | 0.00 | 0.00 | 84 | 1015.5 |
| 20260503071052 | 53 | 0 | 0.0 | 0.0 | 0.00 | 0.00 | 0.00 | 83 | 1015.6 |
| 20260503070553 | 54 | 0 | 0.0 | 0.0 | 0.00 | 0.00 | 0.00 | 83 | 1015.7 |
| 20260503055053 | 57 | 0 | 0.0 | 0.0 | 0.00 | 0.00 | 0.00 | 77 | 1015.4 |
| 20260503054600 | 57 | 0 | 0.0 | 0.0 | 0.00 | 0.00 | 0.00 | 76 | 1015.5 |
| 20260503054057 | 57 | 0 | 0.0 | 0.0 | 0.00 | 0.00 | 0.00 | 76 | 1015.5 |
| 20260503053553 | 58 | 0 | 0.0 | 0.0 | 0.00 | 0.00 | 0.00 | 75 | 1015.5 |
| 20260503053059 | 58 | 0 | 0.0 | 0.0 | 0.00 | 0.00 | 0.00 | 75 | 1015.6 |
| 20260503052553 | 58 | 0 | 0.0 | 0.0 | 0.00 | 0.00 | 0.00 | 75 | 1015.5 |
| 20260503052056 | 58 | 0 | 0.0 | 0.0 | 0.00 | 0.00 | 0.00 | 74 | 1015.6 |
| 20260503051557 | 59 | 0 | 0.0 | 0.0 | 0.00 | 0.00 | 0.00 | 73 | 1015.5 |
| 20260503051053 | 59 | 0 | 0.0 | 0.0 | 0.00 | 0.00 | 0.00 | 72 | 1015.5 |
| 20260503050555 | 59 | 0 | 0.0 | 0.0 | 0.00 | 0.00 | 0.00 | 72 | 1015.3 |
| 20260503050059 | 60 | 0 | 0.0 | 0.0 | 0.00 | 0.00 | 0.00 | 71 | 1015.4 |
| 20260503045554 | 60 | 0 | 0.0 | 0.0 | 0.00 | 0.00 | 0.00 | 70 | 1015.3 |
| 20260503045055 | 60 | 0 | 0.0 | 0.0 | 0.00 | 0.00 | 0.00 | 69 | 1015.3 |
| 20260503044558 | 60 | 0 | 0.0 | 0.0 | 0.00 | 0.00 | 0.00 | 69 | 1015.3 |
| 20260503044055 | 60 | 0 | 0.0 | 0.0 | 0.00 | 0.00 | 0.00 | 69 | 1015.2 |
| 20260503043559 | 61 | 0 | 0.0 | 0.0 | 0.00 | 0.00 | 0.00 | 67 | 1015.1 |
| 20260503043059 | 61 | 0 | 0.0 | 0.0 | 0.00 | 0.00 | 0.00 | 66 | 1014.9 |
| 20260503042557 | 62 | 0 | 0.0 | 0.0 | 0.00 | 0.00 | 0.00 | 64 | 1014.9 |
| 20260503042055 | 62 | 0 | 0.0 | 0.0 | 0.00 | 0.00 | 0.00 | 64 | 1014.9 |
| 20260503041604 | 62 | 0 | 0.0 | 0.0 | 0.00 | 0.00 | 0.00 | 63 | 1014.8 |
| 20260503041054 | 63 | 0 | 0.0 | 0.0 | 0.00 | 0.00 | 0.00 | 62 | 1014.7 |
| 20260503040554 | 63 | 0 | 0.0 | 0.0 | 0.00 | 0.00 | 0.00 | 61 | 1014.6 |
| 20260503040058 | 64 | 0 | 0.0 | 0.0 | 0.00 | 0.00 | 0.00 | 60 | 1014.5 |
| 20260503035554 | 64 | 0 | 0.0 | 0.0 | 0.00 | 0.00 | 0.00 | 59 | 1014.5 |
| 20260503035054 | 65 | 0 | 0.0 | 0.0 | 0.00 | 0.00 | 0.00 | 58 | 1014.3 |
| 20260503034553 | 66 | 0 | 0.0 | 0.0 | 0.00 | 0.00 | 0.00 | 54 | 1014.3 |
| 20260503034054 | 67 | 0 | 0.0 | 0.0 | 0.00 | 0.00 | 0.00 | 53 | 1014.2 |
| 20260503033555 | 67 | 0 | 0.0 | 0.0 | 0.00 | 0.00 | 0.00 | 57 | 1014.2 |
| 20260503033054 | 68 | 0 | 0.0 | 0.0 | 0.00 | 0.00 | 0.00 | 49 | 1014.1 |
| 20260503032557 | 68 | 0 | 0.0 | 1.7 | 0.00 | 0.00 | 0.00 | 49 | 1014.1 |
| 20260503032055 | 69 | 0 | 0.0 | 1.7 | 0.00 | 0.00 | 0.00 | 48 | 1014.0 |
| 20260503031555 | 69 | 0 | 0.0 | 0.0 | 0.00 | 0.00 | 0.00 | 49 | 1014.0 |
| 20260503031055 | 69 | 0 | 0.0 | 0.0 | 0.00 | 0.00 | 0.00 | 48 | 1013.9 |
| 20260503030555 | 70 | 0 | 0.0 | 1.7 | 0.00 | 0.00 | 0.00 | 46 | 1014.0 |
| 20260503025554 | 70 | 0 | 0.0 | 2.6 | 0.00 | 0.00 | 0.00 | 45 | 1013.9 |
| 20260503025056 | 71 | 291 | 0.9 | 5.2 | 0.00 | 0.00 | 0.00 | 44 | 1013.9 |
| 20260503024556 | 71 | 0 | 0.0 | 6.1 | 0.00 | 0.00 | 0.00 | 44 | 1013.8 |
| 20260503024055 | 72 | 273 | 1.7 | 7.0 | 0.00 | 0.00 | 0.00 | 43 | 1013.8 |
| 20260503023555 | 72 | 260 | 0.0 | 7.0 | 0.00 | 0.00 | 0.00 | 43 | 1013.8 |
| 20260503023107 | 72 | 280 | 1.7 | 7.0 | 0.00 | 0.00 | 0.00 | 42 | 1013.9 |
| 20260503022554 | 72 | 261 | 2.6 | 6.1 | 0.00 | 0.00 | 0.00 | 42 | 1013.9 |
| 20260503022058 | 72 | 294 | 0.9 | 8.7 | 0.00 | 0.00 | 0.00 | 41 | 1013.8 |
| 20260503021601 | 73 | 341 | 3.5 | 8.7 | 0.00 | 0.00 | 0.00 | 41 | 1013.8 |
| 20260503021055 | 73 | 273 | 3.5 | 8.7 | 0.00 | 0.00 | 0.00 | 40 | 1013.8 |
| 20260503020555 | 73 | 264 | 2.6 | 8.7 | 0.00 | 0.00 | 0.00 | 40 | 1013.8 |
| 20260503020059 | 73 | 272 | 3.5 | 8.7 | 0.00 | 0.00 | 0.00 | 39 | 1013.9 |
| 20260503015553 | 73 | 0 | 3.5 | 9.6 | 0.00 | 0.00 | 0.00 | 39 | 1013.9 |
| 20260503015053 | 73 | 286 | 2.6 | 9.6 | 0.00 | 0.00 | 0.00 | 40 | 1013.9 |
| 20260503014602 | 74 | 294 | 4.3 | 9.6 | 0.00 | 0.00 | 0.00 | 39 | 1013.9 |
| 20260503014053 | 74 | 281 | 2.6 | 8.7 | 0.00 | 0.00 | 0.00 | 39 | 1014.0 |
| 20260503013557 | 73 | 341 | 3.5 | 10.4 | 0.00 | 0.00 | 0.00 | 39 | 1014.0 |
| 20260503013101 | 74 | 335 | 1.7 | 14.8 | 0.00 | 0.00 | 0.00 | 40 | 1014.1 |
| 20260503012555 | 74 | 333 | 6.1 | 14.8 | 0.00 | 0.00 | 0.00 | 40 | 1014.0 |
| 20260503012053 | 74 | 54 | 5.2 | 9.6 | 0.00 | 0.00 | 0.00 | 41 | 1014.0 |
| 20260503011614 | 74 | 355 | 2.6 | 9.6 | 0.00 | 0.00 | 0.00 | 48 | 1014.0 |
| 20260503011053 | 75 | 344 | 3.5 | 10.4 | 0.00 | 0.00 | 0.00 | 43 | 1013.9 |
| 20260503010554 | 75 | 242 | 4.3 | 10.4 | 0.00 | 0.00 | 0.00 | 44 | 1014.0 |
| 20260503010059 | 75 | 340 | 1.7 | 10.4 | 0.00 | 0.00 | 0.00 | 45 | 1014.2 |
| 20260503005557 | 75 | 251 | 4.3 | 10.4 | 0.00 | 0.00 | 0.00 | 45 | 1014.2 |
| 20260503005053 | 75 | 355 | 2.6 | 10.4 | 0.00 | 0.00 | 0.00 | 48 | 1014.3 |
| 20260503004558 | 75 | 315 | 5.2 | 10.4 | 0.00 | 0.00 | 0.00 | 47 | 1014.3 |
| 20260503004054 | 75 | 340 | 2.6 | 10.4 | 0.00 | 0.00 | 0.00 | 52 | 1014.2 |
| 20260503003554 | 75 | 285 | 4.3 | 10.4 | 0.00 | 0.00 | 0.00 | 48 | 1014.2 |
| 20260503003053 | 75 | 260 | 5.2 | 9.6 | 0.00 | 0.00 | 0.00 | 48 | 1014.2 |
| 20260503002554 | 75 | 257 | 2.6 | 8.7 | 0.00 | 0.00 | 0.00 | 48 | 1014.2 |
| 20260503002054 | 76 | 338 | 2.6 | 8.7 | 0.00 | 0.00 | 0.00 | 49 | 1014.2 |
| 20260503001553 | 75 | 302 | 1.7 | 10.4 | 0.00 | 0.00 | 0.00 | 49 | 1014.2 |
| 20260503001055 | 75 | 339 | 4.3 | 10.4 | 0.00 | 0.00 | 0.00 | 49 | 1014.4 |
| 20260503000554 | 76 | 273 | 4.3 | 8.7 | 0.00 | 0.00 | 0.00 | 55 | 1014.4 |
| 20260503000104 | 76 | 333 | 2.6 | 10.4 | 0.00 | 0.00 | 0.00 | 49 | 1014.4 |
| 20260502235555 | 76 | 312 | 4.3 | 10.4 | 0.00 | 0.00 | 0.00 | 50 | 1014.4 |
| 20260502235053 | 76 | 0 | 2.6 | 10.4 | 0.00 | 0.00 | 0.00 | 50 | 1014.5 |
| 20260502234602 | 76 | 271 | 4.3 | 10.4 | 0.00 | 0.00 | 0.00 | 51 | 1014.6 |
| 20260502234053 | 76 | 265 | 2.6 | 9.6 | 0.00 | 0.00 | 0.00 | 51 | 1014.6 |
| 20260502233554 | 75 | 340 | 3.5 | 9.6 | 0.00 | 0.00 | 0.00 | 51 | 1014.6 |
| 20260502233055 | 76 | 338 | 4.3 | 9.6 | 0.00 | 0.00 | 0.00 | 51 | 1014.7 |
| 20260502232553 | 76 | 268 | 2.6 | 9.6 | 0.00 | 0.00 | 0.00 | 51 | 1014.7 |
| 20260502232056 | 75 | 323 | 5.2 | 9.6 | 0.00 | 0.00 | 0.00 | 52 | 1014.7 |
| 20260502231554 | 76 | 349 | 3.5 | 11.3 | 0.00 | 0.00 | 0.00 | 53 | 1014.7 |
| 20260502231055 | 76 | 319 | 1.7 | 11.3 | 0.00 | 0.00 | 0.00 | 54 | 1014.8 |
| 20260502230553 | 75 | 280 | 4.3 | 11.3 | 0.00 | 0.00 | 0.00 | 53 | 1014.8 |
| 20260502230055 | 75 | 269 | 4.3 | 9.6 | 0.00 | 0.00 | 0.00 | 54 | 1015.0 |
| 20260502225554 | 75 | 321 | 5.2 | 9.6 | 0.00 | 0.00 | 0.00 | 54 | 1015.0 |
| 20260502225054 | 75 | 206 | 4.3 | 9.6 | 0.00 | 0.00 | 0.00 | 54 | 1015.2 |
| 20260502224555 | 75 | 259 | 4.3 | 9.6 | 0.00 | 0.00 | 0.00 | 54 | 1015.2 |
| 20260502224058 | 75 | 288 | 4.3 | 9.6 | 0.00 | 0.00 | 0.00 | 53 | 1015.3 |
| 20260502223555 | 75 | 327 | 3.5 | 9.6 | 0.00 | 0.00 | 0.00 | 54 | 1015.4 |
| 20260502223053 | 75 | 293 | 3.5 | 9.6 | 0.00 | 0.00 | 0.00 | 54 | 1015.5 |
| 20260502222555 | 75 | 243 | 3.5 | 8.7 | 0.00 | 0.00 | 0.00 | 54 | 1015.5 |
| 20260502222054 | 75 | 331 | 4.3 | 9.6 | 0.00 | 0.00 | 0.00 | 54 | 1015.5 |
| 20260502221613 | 75 | 275 | 4.3 | 9.6 | 0.00 | 0.00 | 0.00 | 54 | 1015.6 |
| 20260502221054 | 75 | 255 | 3.5 | 9.6 | 0.00 | 0.00 | 0.00 | 52 | 1015.7 |
| 20260502220554 | 75 | 352 | 2.6 | 8.7 | 0.00 | 0.00 | 0.00 | 53 | 1015.7 |
| 20260502220108 | 76 | 316 | 3.5 | 8.7 | 0.00 | 0.00 | 0.00 | 53 | 1015.7 |
| 20260502215554 | 75 | 238 | 3.5 | 8.7 | 0.00 | 0.00 | 0.00 | 53 | 1015.7 |
| 20260502215055 | 75 | 5 | 1.7 | 8.7 | 0.00 | 0.00 | 0.00 | 60 | 1015.8 |
| 20260502214557 | 75 | 279 | 2.6 | 9.6 | 0.00 | 0.00 | 0.00 | 52 | 1015.8 |
| 20260502214055 | 73 | 355 | 0.9 | 9.6 | 0.00 | 0.00 | 0.00 | 56 | 1015.8 |
| 20260502213558 | 74 | 196 | 4.3 | 9.6 | 0.00 | 0.00 | 0.00 | 54 | 1015.9 |
| 20260502213100 | 75 | 263 | 3.5 | 7.8 | 0.00 | 0.00 | 0.00 | 55 | 1015.9 |
| 20260502212552 | 74 | 346 | 2.6 | 7.8 | 0.00 | 0.00 | 0.00 | 54 | 1016.1 |
| 20260502212058 | 74 | 324 | 1.7 | 7.8 | 0.00 | 0.00 | 0.00 | 56 | 1016.0 |
| 20260502211600 | 73 | 319 | 4.3 | 7.8 | 0.00 | 0.00 | 0.00 | 63 | 1016.1 |
| 20260502211056 | 73 | 227 | 3.5 | 7.8 | 0.00 | 0.00 | 0.00 | 57 | 1016.2 |
| 20260502210557 | 73 | 331 | 2.6 | 7.8 | 0.00 | 0.00 | 0.00 | 56 | 1016.3 |
| 20260502210120 | 73 | 352 | 2.6 | 7.8 | 0.00 | 0.00 | 0.00 | 56 | 1016.2 |
| 20260502205557 | 73 | 254 | 0.9 | 9.6 | 0.00 | 0.00 | 0.00 | 60 | 1016.3 |
| 20260502205054 | 71 | 360 | 4.3 | 9.6 | 0.00 | 0.00 | 0.00 | 61 | 1016.3 |
| 20260502204601 | 71 | 225 | 4.3 | 9.6 | 0.00 | 0.00 | 0.00 | 61 | 1016.3 |
| 20260502204054 | 71 | 253 | 3.5 | 9.6 | 0.00 | 0.00 | 0.00 | 60 | 1016.4 |
| 20260502203554 | 70 | 196 | 3.5 | 8.7 | 0.00 | 0.00 | 0.00 | 61 | 1016.3 |
| 20260502203056 | 70 | 264 | 2.6 | 8.7 | 0.00 | 0.00 | 0.00 | 62 | 1016.4 |
| 20260502202554 | 70 | 209 | 3.5 | 9.6 | 0.00 | 0.00 | 0.00 | 62 | 1016.5 |
| 20260502202057 | 70 | 227 | 3.5 | 10.4 | 0.00 | 0.00 | 0.00 | 62 | 1016.6 |
| 20260502201556 | 71 | 245 | 2.6 | 10.4 | 0.00 | 0.00 | 0.00 | 63 | 1016.7 |
| 20260502201056 | 71 | 242 | 5.2 | 10.4 | 0.00 | 0.00 | 0.00 | 68 | 1016.7 |
| 20260502200557 | 72 | 340 | 2.6 | 7.8 | 0.00 | 0.00 | 0.00 | 61 | 1016.7 |
| 20260502200124 | 71 | 351 | 2.6 | 8.7 | 0.00 | 0.00 | 0.00 | 60 | 1016.6 |
| 20260502195554 | 71 | 286 | 3.5 | 8.7 | 0.00 | 0.00 | 0.00 | 60 | 1016.8 |
| 20260502195054 | 71 | 233 | 5.2 | 8.7 | 0.00 | 0.00 | 0.00 | 60 | 1016.7 |
| 20260502194558 | 70 | 313 | 2.6 | 8.7 | 0.00 | 0.00 | 0.00 | 61 | 1016.6 |